sensor_id;sensor_type;location;lat;lon;timestamp;temperature;humidity
1329;DHT22;658;48.820;9.354;2023-11-21T00:00:19;22.50;46.00
1329;DHT22;658;48.820;9.354;2023-11-21T00:04:19;22.50;45.90
1329;DHT22;658;48.820;9.354;2023-11-21T00:08:20;22.50;45.90
1329;DHT22;658;48.820;9.354;2023-11-21T00:12:21;22.50;46.00
1329;DHT22;658;48.820;9.354;2023-11-21T00:16:21;22.50;46.10
1329;DHT22;658;48.820;9.354;2023-11-21T00:20:24;22.50;46.00
1329;DHT22;658;48.820;9.354;2023-11-21T00:24:25;22.50;46.10
1329;DHT22;658;48.820;9.354;2023-11-21T00:28:26;22.40;46.00
1329;DHT22;658;48.820;9.354;2023-11-21T00:32:27;22.40;46.10
1329;DHT22;658;48.820;9.354;2023-11-21T00:36:27;22.40;46.00
1329;DHT22;658;48.820;9.354;2023-11-21T00:40:28;22.40;46.30
1329;DHT22;658;48.820;9.354;2023-11-21T00:44:28;22.40;46.10
1329;DHT22;658;48.820;9.354;2023-11-21T00:48:29;22.40;46.10
1329;DHT22;658;48.820;9.354;2023-11-21T00:52:29;22.30;46.10
1329;DHT22;658;48.820;9.354;2023-11-21T00:56:30;22.40;46.20
1329;DHT22;658;48.820;9.354;2023-11-21T01:00:33;22.40;46.20
1329;DHT22;658;48.820;9.354;2023-11-21T01:04:33;22.30;46.10
1329;DHT22;658;48.820;9.354;2023-11-21T01:08:34;22.30;46.20
1329;DHT22;658;48.820;9.354;2023-11-21T01:12:37;22.30;46.20
1329;DHT22;658;48.820;9.354;2023-11-21T01:16:38;22.30;46.20
1329;DHT22;658;48.820;9.354;2023-11-21T01:20:38;22.30;46.20
1329;DHT22;658;48.820;9.354;2023-11-21T01:24:40;22.30;46.30
1329;DHT22;658;48.820;9.354;2023-11-21T01:28:40;22.30;46.30
1329;DHT22;658;48.820;9.354;2023-11-21T01:32:41;22.30;46.30
1329;DHT22;658;48.820;9.354;2023-11-21T01:36:42;22.30;46.40
1329;DHT22;658;48.820;9.354;2023-11-21T01:40:42;22.30;46.40
1329;DHT22;658;48.820;9.354;2023-11-21T01:44:45;22.20;46.40
1329;DHT22;658;48.820;9.354;2023-11-21T01:48:48;22.30;46.50
1329;DHT22;658;48.820;9.354;2023-11-21T01:52:49;22.20;46.40
1329;DHT22;658;48.820;9.354;2023-11-21T01:56:50;22.20;46.40
1329;DHT22;658;48.820;9.354;2023-11-21T02:00:51;22.20;46.40
1329;DHT22;658;48.820;9.354;2023-11-21T02:04:53;22.20;46.40
1329;DHT22;658;48.820;9.354;2023-11-21T02:08:53;22.20;46.40
1329;DHT22;658;48.820;9.354;2023-11-21T02:12:54;22.30;46.40
1329;DHT22;658;48.820;9.354;2023-11-21T02:16:56;22.30;46.50
1329;DHT22;658;48.820;9.354;2023-11-21T02:21:01;22.30;46.40
1329;DHT22;658;48.820;9.354;2023-11-21T02:25:04;22.30;46.50
1329;DHT22;658;48.820;9.354;2023-11-21T02:29:08;22.30;46.40
1329;DHT22;658;48.820;9.354;2023-11-21T02:33:12;22.30;46.40
1329;DHT22;658;48.820;9.354;2023-11-21T02:37:12;22.30;46.40
1329;DHT22;658;48.820;9.354;2023-11-21T02:41:13;22.40;46.50
1329;DHT22;658;48.820;9.354;2023-11-21T02:45:14;22.40;46.40
1329;DHT22;658;48.820;9.354;2023-11-21T02:49:17;22.40;46.40
1329;DHT22;658;48.820;9.354;2023-11-21T02:53:17;22.40;46.40
1329;DHT22;658;48.820;9.354;2023-11-21T02:57:18;22.40;46.40
1329;DHT22;658;48.820;9.354;2023-11-21T03:01:19;22.40;46.40
1329;DHT22;658;48.820;9.354;2023-11-21T03:05:19;22.40;46.40
1329;DHT22;658;48.820;9.354;2023-11-21T03:09:20;22.40;46.40
1329;DHT22;658;48.820;9.354;2023-11-21T03:13:23;22.40;46.40
1329;DHT22;658;48.820;9.354;2023-11-21T03:17:26;22.40;46.30
1329;DHT22;658;48.820;9.354;2023-11-21T03:21:27;22.40;46.30
1329;DHT22;658;48.820;9.354;2023-11-21T03:25:27;22.40;46.30
1329;DHT22;658;48.820;9.354;2023-11-21T03:29:28;22.50;46.40
1329;DHT22;658;48.820;9.354;2023-11-21T03:33:28;22.40;46.30
1329;DHT22;658;48.820;9.354;2023-11-21T03:37:29;22.40;46.30
1329;DHT22;658;48.820;9.354;2023-11-21T03:41:30;22.50;46.40
1329;DHT22;658;48.820;9.354;2023-11-21T03:45:30;22.50;46.40
1329;DHT22;658;48.820;9.354;2023-11-21T03:49:31;22.40;46.30
1329;DHT22;658;48.820;9.354;2023-11-21T03:53:31;22.50;46.40
1329;DHT22;658;48.820;9.354;2023-11-21T03:57:32;22.40;46.30
1329;DHT22;658;48.820;9.354;2023-11-21T04:01:32;22.50;46.40
1329;DHT22;658;48.820;9.354;2023-11-21T04:05:33;22.50;46.30
1329;DHT22;658;48.820;9.354;2023-11-21T04:09:34;22.50;46.30
1329;DHT22;658;48.820;9.354;2023-11-21T04:13:34;22.50;46.30
1329;DHT22;658;48.820;9.354;2023-11-21T04:17:38;22.50;46.30
1329;DHT22;658;48.820;9.354;2023-11-21T04:21:39;22.40;46.30
1329;DHT22;658;48.820;9.354;2023-11-21T04:25:39;22.40;46.30
1329;DHT22;658;48.820;9.354;2023-11-21T04:29:40;22.40;46.30
1329;DHT22;658;48.820;9.354;2023-11-21T04:33:41;22.40;46.30
1329;DHT22;658;48.820;9.354;2023-11-21T04:37:42;22.40;46.30
1329;DHT22;658;48.820;9.354;2023-11-21T04:41:42;22.40;46.30
1329;DHT22;658;48.820;9.354;2023-11-21T04:45:45;22.40;46.30
1329;DHT22;658;48.820;9.354;2023-11-21T04:49:46;22.40;46.30
1329;DHT22;658;48.820;9.354;2023-11-21T04:53:49;22.40;46.20
1329;DHT22;658;48.820;9.354;2023-11-21T04:57:50;22.40;46.30
1329;DHT22;658;48.820;9.354;2023-11-21T05:01:51;22.40;46.20
1329;DHT22;658;48.820;9.354;2023-11-21T05:05:54;22.40;46.30
1329;DHT22;658;48.820;9.354;2023-11-21T05:09:56;22.40;46.30
1329;DHT22;658;48.820;9.354;2023-11-21T05:13:58;22.40;46.40
1329;DHT22;658;48.820;9.354;2023-11-21T05:18:01;22.40;46.40
1329;DHT22;658;48.820;9.354;2023-11-21T05:22:02;22.40;46.40
1329;DHT22;658;48.820;9.354;2023-11-21T05:26:03;22.30;46.40
1329;DHT22;658;48.820;9.354;2023-11-21T05:30:05;22.40;46.40
1329;DHT22;658;48.820;9.354;2023-11-21T05:34:06;22.40;46.30
1329;DHT22;658;48.820;9.354;2023-11-21T05:38:06;22.40;46.30
1329;DHT22;658;48.820;9.354;2023-11-21T05:42:07;22.40;46.30
1329;DHT22;658;48.820;9.354;2023-11-21T05:46:09;22.40;46.30
1329;DHT22;658;48.820;9.354;2023-11-21T05:50:11;22.40;46.30
1329;DHT22;658;48.820;9.354;2023-11-21T05:54:12;22.40;46.30
1329;DHT22;658;48.820;9.354;2023-11-21T05:58:15;22.30;46.30
1329;DHT22;658;48.820;9.354;2023-11-21T06:02:16;22.30;46.40
1329;DHT22;658;48.820;9.354;2023-11-21T06:06:16;22.30;46.40
1329;DHT22;658;48.820;9.354;2023-11-21T06:10:17;22.30;46.30
1329;DHT22;658;48.820;9.354;2023-11-21T06:14:19;22.30;46.30
1329;DHT22;658;48.820;9.354;2023-11-21T06:18:22;22.30;46.70
1329;DHT22;658;48.820;9.354;2023-11-21T06:22:25;22.40;46.60
1329;DHT22;658;48.820;9.354;2023-11-21T06:26:27;22.40;46.50
1329;DHT22;658;48.820;9.354;2023-11-21T06:30:28;22.40;46.50
1329;DHT22;658;48.820;9.354;2023-11-21T06:34:29;22.40;46.50
1329;DHT22;658;48.820;9.354;2023-11-21T06:38:32;22.40;46.60
1329;DHT22;658;48.820;9.354;2023-11-21T06:42:33;22.40;46.50
1329;DHT22;658;48.820;9.354;2023-11-21T06:46:34;22.40;46.50
1329;DHT22;658;48.820;9.354;2023-11-21T06:50:34;22.50;46.70
1329;DHT22;658;48.820;9.354;2023-11-21T06:54:39;22.50;47.10
1329;DHT22;658;48.820;9.354;2023-11-21T06:58:40;22.50;47.00
1329;DHT22;658;48.820;9.354;2023-11-21T07:02:41;22.50;47.00
1329;DHT22;658;48.820;9.354;2023-11-21T07:06:43;22.50;47.00
1329;DHT22;658;48.820;9.354;2023-11-21T07:10:44;22.50;47.00
1329;DHT22;658;48.820;9.354;2023-11-21T07:14:45;22.60;47.10
1329;DHT22;658;48.820;9.354;2023-11-21T07:18:50;22.50;47.10
1329;DHT22;658;48.820;9.354;2023-11-21T07:22:57;22.60;47.20
1329;DHT22;658;48.820;9.354;2023-11-21T07:26:58;22.60;47.10
1329;DHT22;658;48.820;9.354;2023-11-21T07:30:59;22.60;47.00
1329;DHT22;658;48.820;9.354;2023-11-21T07:35:00;22.60;47.00
1329;DHT22;658;48.820;9.354;2023-11-21T07:39:01;22.60;47.10
1329;DHT22;658;48.820;9.354;2023-11-21T07:43:03;22.60;47.10
1329;DHT22;658;48.820;9.354;2023-11-21T07:47:06;22.70;47.40
1329;DHT22;658;48.820;9.354;2023-11-21T07:51:06;22.70;47.80
1329;DHT22;658;48.820;9.354;2023-11-21T07:55:07;22.70;47.90
1329;DHT22;658;48.820;9.354;2023-11-21T07:59:08;22.70;47.60
1329;DHT22;658;48.820;9.354;2023-11-21T08:03:08;22.70;47.70
1329;DHT22;658;48.820;9.354;2023-11-21T08:07:09;22.70;47.60
1329;DHT22;658;48.820;9.354;2023-11-21T08:11:12;22.70;47.50
1329;DHT22;658;48.820;9.354;2023-11-21T08:15:12;22.70;47.40
1329;DHT22;658;48.820;9.354;2023-11-21T08:19:16;22.70;47.50
1329;DHT22;658;48.820;9.354;2023-11-21T08:23:17;22.80;47.40
1329;DHT22;658;48.820;9.354;2023-11-21T08:27:17;22.70;47.30
1329;DHT22;658;48.820;9.354;2023-11-21T08:31:24;22.70;47.30
1329;DHT22;658;48.820;9.354;2023-11-21T08:35:25;22.70;47.20
1329;DHT22;658;48.820;9.354;2023-11-21T08:39:25;22.70;47.10
1329;DHT22;658;48.820;9.354;2023-11-21T08:43:29;22.70;47.10
1329;DHT22;658;48.820;9.354;2023-11-21T08:47:31;22.70;47.00
1329;DHT22;658;48.820;9.354;2023-11-21T08:51:31;22.70;47.10
1329;DHT22;658;48.820;9.354;2023-11-21T08:55:32;22.70;47.00
1329;DHT22;658;48.820;9.354;2023-11-21T08:59:37;22.70;47.00
1329;DHT22;658;48.820;9.354;2023-11-21T09:03:38;22.70;46.90
1329;DHT22;658;48.820;9.354;2023-11-21T09:07:40;22.80;47.00
1329;DHT22;658;48.820;9.354;2023-11-21T09:11:41;22.80;46.90
1329;DHT22;658;48.820;9.354;2023-11-21T09:15:44;22.80;46.90
1329;DHT22;658;48.820;9.354;2023-11-21T09:19:46;22.80;46.80
1329;DHT22;658;48.820;9.354;2023-11-21T09:23:50;22.80;46.80
1329;DHT22;658;48.820;9.354;2023-11-21T09:27:53;22.80;46.80
1329;DHT22;658;48.820;9.354;2023-11-21T09:31:54;22.80;46.80
1329;DHT22;658;48.820;9.354;2023-11-21T09:35:59;22.80;46.70
1329;DHT22;658;48.820;9.354;2023-11-21T09:40:02;22.80;46.70
1329;DHT22;658;48.820;9.354;2023-11-21T09:44:05;22.80;46.60
1329;DHT22;658;48.820;9.354;2023-11-21T09:48:14;22.90;46.60
1329;DHT22;658;48.820;9.354;2023-11-21T09:52:26;22.90;46.60
1329;DHT22;658;48.820;9.354;2023-11-21T09:56:27;23.00;46.60
1329;DHT22;658;48.820;9.354;2023-11-21T10:00:33;23.10;46.40
1329;DHT22;658;48.820;9.354;2023-11-21T10:04:34;23.20;46.30
1329;DHT22;658;48.820;9.354;2023-11-21T10:08:35;23.20;46.20
1329;DHT22;658;48.820;9.354;2023-11-21T10:12:37;23.20;46.10
1329;DHT22;658;48.820;9.354;2023-11-21T10:16:41;23.20;46.10
1329;DHT22;658;48.820;9.354;2023-11-21T10:20:44;23.20;46.10
1329;DHT22;658;48.820;9.354;2023-11-21T10:24:52;23.20;46.10
1329;DHT22;658;48.820;9.354;2023-11-21T10:29:02;23.20;46.10
1329;DHT22;658;48.820;9.354;2023-11-21T10:33:07;23.20;46.10
1329;DHT22;658;48.820;9.354;2023-11-21T10:37:12;23.20;46.10
1329;DHT22;658;48.820;9.354;2023-11-21T10:41:12;23.20;46.20
1329;DHT22;658;48.820;9.354;2023-11-21T10:45:15;23.10;46.20
1329;DHT22;658;48.820;9.354;2023-11-21T10:49:20;23.10;46.20
1329;DHT22;658;48.820;9.354;2023-11-21T10:53:21;23.20;46.20
1329;DHT22;658;48.820;9.354;2023-11-21T10:57:22;23.20;46.20
1329;DHT22;658;48.820;9.354;2023-11-21T11:01:25;23.20;46.20
1329;DHT22;658;48.820;9.354;2023-11-21T11:05:29;23.20;46.20
1329;DHT22;658;48.820;9.354;2023-11-21T11:09:32;23.20;46.30
1329;DHT22;658;48.820;9.354;2023-11-21T11:13:37;23.20;46.30
1329;DHT22;658;48.820;9.354;2023-11-21T11:17:40;23.10;46.20
1329;DHT22;658;48.820;9.354;2023-11-21T11:35:10;23.10;46.90
1329;DHT22;658;48.820;9.354;2023-11-21T11:39:38;23.10;47.00
1329;DHT22;658;48.820;9.354;2023-11-21T11:43:39;23.10;47.00
1329;DHT22;658;48.820;9.354;2023-11-21T11:47:48;23.10;47.00
1329;DHT22;658;48.820;9.354;2023-11-21T11:56:31;23.10;47.10
1329;DHT22;658;48.820;9.354;2023-11-21T12:00:38;23.10;47.10
1329;DHT22;658;48.820;9.354;2023-11-21T12:04:41;23.10;47.10
1329;DHT22;658;48.820;9.354;2023-11-21T12:08:41;23.10;47.10
1329;DHT22;658;48.820;9.354;2023-11-21T12:12:46;23.10;47.00
1329;DHT22;658;48.820;9.354;2023-11-21T12:16:47;23.20;47.00
1329;DHT22;658;48.820;9.354;2023-11-21T12:20:51;23.20;46.90
1329;DHT22;658;48.820;9.354;2023-11-21T12:24:51;23.20;46.90
1329;DHT22;658;48.820;9.354;2023-11-21T12:28:53;23.20;46.80
1329;DHT22;658;48.820;9.354;2023-11-21T12:32:57;23.20;46.80
1329;DHT22;658;48.820;9.354;2023-11-21T12:36:59;23.20;46.70
1329;DHT22;658;48.820;9.354;2023-11-21T12:41:00;23.20;46.60
1329;DHT22;658;48.820;9.354;2023-11-21T12:49:18;23.30;46.20
1329;DHT22;658;48.820;9.354;2023-11-21T12:53:19;23.30;46.10
1329;DHT22;658;48.820;9.354;2023-11-21T12:57:26;23.30;46.10
1329;DHT22;658;48.820;9.354;2023-11-21T13:01:30;23.40;46.00
1329;DHT22;658;48.820;9.354;2023-11-21T13:05:37;23.40;46.00
1329;DHT22;658;48.820;9.354;2023-11-21T13:09:47;23.40;46.00
1329;DHT22;658;48.820;9.354;2023-11-21T13:13:51;23.40;45.90
1329;DHT22;658;48.820;9.354;2023-11-21T13:17:54;23.60;45.70
1329;DHT22;658;48.820;9.354;2023-11-21T13:21:58;23.80;45.30
1329;DHT22;658;48.820;9.354;2023-11-21T13:26:01;23.90;44.80
1329;DHT22;658;48.820;9.354;2023-11-21T13:30:04;23.90;44.80
1329;DHT22;658;48.820;9.354;2023-11-21T13:34:08;23.80;46.10
1329;DHT22;658;48.820;9.354;2023-11-21T13:38:11;23.80;46.60
1329;DHT22;658;48.820;9.354;2023-11-21T13:42:12;23.70;47.20
1329;DHT22;658;48.820;9.354;2023-11-21T13:46:13;23.60;47.60
1329;DHT22;658;48.820;9.354;2023-11-21T13:50:20;23.50;48.10
1329;DHT22;658;48.820;9.354;2023-11-21T13:54:24;23.50;48.60
1329;DHT22;658;48.820;9.354;2023-11-21T13:58:25;23.40;48.90
1329;DHT22;658;48.820;9.354;2023-11-21T14:02:44;23.40;49.20
1329;DHT22;658;48.820;9.354;2023-11-21T14:06:50;23.30;49.60
1329;DHT22;658;48.820;9.354;2023-11-21T14:10:53;23.30;50.00
1329;DHT22;658;48.820;9.354;2023-11-21T14:15:00;23.20;50.10
1329;DHT22;658;48.820;9.354;2023-11-21T14:19:03;23.20;50.40
1329;DHT22;658;48.820;9.354;2023-11-21T14:23:15;23.20;50.70
1329;DHT22;658;48.820;9.354;2023-11-21T14:27:16;23.20;50.90
1329;DHT22;658;48.820;9.354;2023-11-21T14:31:17;23.10;51.00
1329;DHT22;658;48.820;9.354;2023-11-21T14:35:17;23.10;51.00
1329;DHT22;658;48.820;9.354;2023-11-21T14:39:18;23.10;51.20
1329;DHT22;658;48.820;9.354;2023-11-21T14:43:27;23.00;51.40
1329;DHT22;658;48.820;9.354;2023-11-21T14:47:30;23.00;51.50
1329;DHT22;658;48.820;9.354;2023-11-21T14:51:30;23.00;51.40
1329;DHT22;658;48.820;9.354;2023-11-21T14:55:35;23.00;51.60
1329;DHT22;658;48.820;9.354;2023-11-21T14:59:50;23.00;51.60
1329;DHT22;658;48.820;9.354;2023-11-21T15:03:52;23.00;51.90
1329;DHT22;658;48.820;9.354;2023-11-21T15:07:56;23.00;51.90
1329;DHT22;658;48.820;9.354;2023-11-21T15:11:59;22.80;48.70
1329;DHT22;658;48.820;9.354;2023-11-21T15:16:17;22.10;49.30
1329;DHT22;658;48.820;9.354;2023-11-21T15:20:21;21.90;48.70
1329;DHT22;658;48.820;9.354;2023-11-21T15:24:23;21.90;48.70
1329;DHT22;658;48.820;9.354;2023-11-21T15:28:24;21.90;48.70
1329;DHT22;658;48.820;9.354;2023-11-21T15:32:24;22.00;48.80
1329;DHT22;658;48.820;9.354;2023-11-21T15:36:27;22.00;48.50
1329;DHT22;658;48.820;9.354;2023-11-21T15:40:28;22.10;48.50
1329;DHT22;658;48.820;9.354;2023-11-21T15:44:29;22.20;48.30
1329;DHT22;658;48.820;9.354;2023-11-21T15:48:31;22.20;48.30
1329;DHT22;658;48.820;9.354;2023-11-21T15:52:32;22.30;48.20
1329;DHT22;658;48.820;9.354;2023-11-21T15:56:33;22.30;48.10
1329;DHT22;658;48.820;9.354;2023-11-21T16:00:35;22.30;48.00
1329;DHT22;658;48.820;9.354;2023-11-21T16:04:37;22.30;47.90
1329;DHT22;658;48.820;9.354;2023-11-21T16:08:38;22.40;47.90
1329;DHT22;658;48.820;9.354;2023-11-21T16:12:38;22.40;47.90
1329;DHT22;658;48.820;9.354;2023-11-21T16:16:41;22.40;47.80
1329;DHT22;658;48.820;9.354;2023-11-21T16:20:44;22.40;47.40
1329;DHT22;658;48.820;9.354;2023-11-21T16:24:45;22.00;48.20
1329;DHT22;658;48.820;9.354;2023-11-21T16:28:45;22.00;48.80
1329;DHT22;658;48.820;9.354;2023-11-21T16:32:46;22.00;49.10
1329;DHT22;658;48.820;9.354;2023-11-21T16:36:47;22.00;49.40
1329;DHT22;658;48.820;9.354;2023-11-21T16:40:49;22.00;49.40
1329;DHT22;658;48.820;9.354;2023-11-21T16:44:50;22.10;49.50
1329;DHT22;658;48.820;9.354;2023-11-21T16:48:53;22.10;49.80
1329;DHT22;658;48.820;9.354;2023-11-21T16:52:53;22.10;50.10
1329;DHT22;658;48.820;9.354;2023-11-21T16:56:54;22.10;50.00
1329;DHT22;658;48.820;9.354;2023-11-21T17:00:55;22.10;50.10
1329;DHT22;658;48.820;9.354;2023-11-21T17:04:56;22.10;50.50
1329;DHT22;658;48.820;9.354;2023-11-21T17:08:59;22.10;50.50
1329;DHT22;658;48.820;9.354;2023-11-21T17:13:06;22.10;50.20
1329;DHT22;658;48.820;9.354;2023-11-21T17:17:07;22.20;50.30
1329;DHT22;658;48.820;9.354;2023-11-21T17:21:10;22.20;50.30
1329;DHT22;658;48.820;9.354;2023-11-21T17:25:11;22.20;50.60
1329;DHT22;658;48.820;9.354;2023-11-21T17:29:12;22.20;50.40
1329;DHT22;658;48.820;9.354;2023-11-21T17:33:14;22.20;50.50
1329;DHT22;658;48.820;9.354;2023-11-21T17:37:15;22.20;50.30
1329;DHT22;658;48.820;9.354;2023-11-21T17:41:20;22.30;50.50
1329;DHT22;658;48.820;9.354;2023-11-21T17:45:26;22.30;50.40
1329;DHT22;658;48.820;9.354;2023-11-21T17:49:29;22.30;50.40
1329;DHT22;658;48.820;9.354;2023-11-21T17:53:32;22.30;50.30
1329;DHT22;658;48.820;9.354;2023-11-21T17:57:33;22.30;50.40
1329;DHT22;658;48.820;9.354;2023-11-21T18:01:38;22.30;50.30
1329;DHT22;658;48.820;9.354;2023-11-21T18:05:42;22.30;50.30
1329;DHT22;658;48.820;9.354;2023-11-21T18:09:44;22.40;50.50
1329;DHT22;658;48.820;9.354;2023-11-21T18:13:44;22.40;50.30
1329;DHT22;658;48.820;9.354;2023-11-21T18:17:45;22.40;50.30
1329;DHT22;658;48.820;9.354;2023-11-21T18:21:48;22.40;50.20
1329;DHT22;658;48.820;9.354;2023-11-21T18:25:49;22.40;50.30
1329;DHT22;658;48.820;9.354;2023-11-21T18:29:51;22.40;50.10
1329;DHT22;658;48.820;9.354;2023-11-21T18:33:53;22.40;50.20
1329;DHT22;658;48.820;9.354;2023-11-21T18:37:53;22.40;50.00
1329;DHT22;658;48.820;9.354;2023-11-21T18:41:54;22.40;50.10
1329;DHT22;658;48.820;9.354;2023-11-21T18:46:01;22.40;50.10
1329;DHT22;658;48.820;9.354;2023-11-21T18:50:02;22.40;49.90
1329;DHT22;658;48.820;9.354;2023-11-21T18:54:04;22.40;49.80
1329;DHT22;658;48.820;9.354;2023-11-21T18:58:08;22.50;49.80
1329;DHT22;658;48.820;9.354;2023-11-21T19:02:09;22.50;49.60
1329;DHT22;658;48.820;9.354;2023-11-21T19:06:13;22.50;49.70
1329;DHT22;658;48.820;9.354;2023-11-21T19:10:15;22.50;49.60
1329;DHT22;658;48.820;9.354;2023-11-21T19:14:18;22.50;49.60
1329;DHT22;658;48.820;9.354;2023-11-21T19:18:18;22.50;49.70
1329;DHT22;658;48.820;9.354;2023-11-21T19:22:19;22.50;49.60
1329;DHT22;658;48.820;9.354;2023-11-21T19:26:20;22.50;49.50
1329;DHT22;658;48.820;9.354;2023-11-21T19:30:22;22.50;49.40
1329;DHT22;658;48.820;9.354;2023-11-21T19:34:24;22.50;49.10
1329;DHT22;658;48.820;9.354;2023-11-21T19:38:25;22.50;49.50
1329;DHT22;658;48.820;9.354;2023-11-21T19:42:26;22.50;49.30
1329;DHT22;658;48.820;9.354;2023-11-21T19:46:29;22.50;49.20
1329;DHT22;658;48.820;9.354;2023-11-21T19:50:30;22.50;49.30
1329;DHT22;658;48.820;9.354;2023-11-21T19:54:31;22.50;49.20
1329;DHT22;658;48.820;9.354;2023-11-21T19:58:32;22.50;49.20
1329;DHT22;658;48.820;9.354;2023-11-21T20:02:33;22.50;49.10
1329;DHT22;658;48.820;9.354;2023-11-21T20:06:38;22.50;49.40
1329;DHT22;658;48.820;9.354;2023-11-21T20:10:42;22.50;49.30
1329;DHT22;658;48.820;9.354;2023-11-21T20:14:44;22.50;49.30
1329;DHT22;658;48.820;9.354;2023-11-21T20:18:46;22.50;49.40
1329;DHT22;658;48.820;9.354;2023-11-21T20:22:47;22.60;49.40
1329;DHT22;658;48.820;9.354;2023-11-21T20:26:48;22.60;49.40
1329;DHT22;658;48.820;9.354;2023-11-21T20:30:49;22.60;49.40
1329;DHT22;658;48.820;9.354;2023-11-21T20:34:52;22.60;49.20
1329;DHT22;658;48.820;9.354;2023-11-21T20:38:53;22.60;49.20
1329;DHT22;658;48.820;9.354;2023-11-21T20:42:54;22.70;49.40
1329;DHT22;658;48.820;9.354;2023-11-21T20:47:02;22.70;49.10
1329;DHT22;658;48.820;9.354;2023-11-21T20:51:03;22.70;49.10
1329;DHT22;658;48.820;9.354;2023-11-21T20:55:04;22.70;49.10
1329;DHT22;658;48.820;9.354;2023-11-21T20:59:05;22.70;49.00
1329;DHT22;658;48.820;9.354;2023-11-21T21:03:11;22.80;49.00
1329;DHT22;658;48.820;9.354;2023-11-21T21:07:15;22.80;48.90
1329;DHT22;658;48.820;9.354;2023-11-21T21:11:18;22.80;48.80
1329;DHT22;658;48.820;9.354;2023-11-21T21:15:22;22.80;48.80
1329;DHT22;658;48.820;9.354;2023-11-21T21:19:29;22.90;48.80
1329;DHT22;658;48.820;9.354;2023-11-21T21:23:29;22.90;48.90
1329;DHT22;658;48.820;9.354;2023-11-21T21:27:30;22.90;48.70
1329;DHT22;658;48.820;9.354;2023-11-21T21:31:32;22.90;48.60
1329;DHT22;658;48.820;9.354;2023-11-21T21:35:33;22.90;48.50
1329;DHT22;658;48.820;9.354;2023-11-21T21:39:34;22.90;48.30
1329;DHT22;658;48.820;9.354;2023-11-21T21:43:34;22.90;48.40
1329;DHT22;658;48.820;9.354;2023-11-21T21:47:35;22.90;48.50
1329;DHT22;658;48.820;9.354;2023-11-21T21:51:37;22.80;48.30
1329;DHT22;658;48.820;9.354;2023-11-21T21:55:41;22.80;48.20
1329;DHT22;658;48.820;9.354;2023-11-21T21:59:42;22.80;48.10
1329;DHT22;658;48.820;9.354;2023-11-21T22:03:49;22.80;48.10
1329;DHT22;658;48.820;9.354;2023-11-21T22:07:50;22.80;48.00
1329;DHT22;658;48.820;9.354;2023-11-21T22:11:50;22.70;48.00
1329;DHT22;658;48.820;9.354;2023-11-21T22:15:53;22.80;48.10
1329;DHT22;658;48.820;9.354;2023-11-21T22:19:54;22.70;48.00
1329;DHT22;658;48.820;9.354;2023-11-21T22:23:56;22.70;48.00
1329;DHT22;658;48.820;9.354;2023-11-21T22:27:57;22.70;48.00
1329;DHT22;658;48.820;9.354;2023-11-21T22:31:58;22.60;47.90
1329;DHT22;658;48.820;9.354;2023-11-21T22:35:59;22.70;48.10
1329;DHT22;658;48.820;9.354;2023-11-21T22:39:59;22.60;48.00
1329;DHT22;658;48.820;9.354;2023-11-21T22:44:00;22.60;47.90
1329;DHT22;658;48.820;9.354;2023-11-21T22:48:00;22.60;47.90
1329;DHT22;658;48.820;9.354;2023-11-21T22:52:01;22.60;47.90
1329;DHT22;658;48.820;9.354;2023-11-21T22:56:02;22.60;47.90
1329;DHT22;658;48.820;9.354;2023-11-21T23:00:07;22.60;47.90
1329;DHT22;658;48.820;9.354;2023-11-21T23:04:21;22.60;47.90
1329;DHT22;658;48.820;9.354;2023-11-21T23:08:21;22.60;47.70
1329;DHT22;658;48.820;9.354;2023-11-21T23:12:23;22.60;47.70
1329;DHT22;658;48.820;9.354;2023-11-21T23:16:23;22.60;47.70
1329;DHT22;658;48.820;9.354;2023-11-21T23:20:24;22.50;47.70
1329;DHT22;658;48.820;9.354;2023-11-21T23:24:25;22.60;47.70
1329;DHT22;658;48.820;9.354;2023-11-21T23:28:26;22.50;47.70
1329;DHT22;658;48.820;9.354;2023-11-21T23:32:27;22.50;47.70
1329;DHT22;658;48.820;9.354;2023-11-21T23:36:27;22.50;47.70
1329;DHT22;658;48.820;9.354;2023-11-21T23:40:28;22.50;47.70
1329;DHT22;658;48.820;9.354;2023-11-21T23:44:28;22.50;47.70
1329;DHT22;658;48.820;9.354;2023-11-21T23:48:29;22.40;47.60
1329;DHT22;658;48.820;9.354;2023-11-21T23:52:29;22.40;47.70
1329;DHT22;658;48.820;9.354;2023-11-21T23:56:30;22.40;47.70
